createdAt,value
2017-02-20T00:00:34.081Z,6.78
2017-02-20T00:01:34.508Z,6.82
2017-02-20T00:02:34.042Z,6.75
2017-02-20T00:03:34.020Z,6.75
2017-02-20T00:04:33.979Z,6.71
2017-02-20T00:05:33.968Z,6.69
2017-02-20T00:06:33.931Z,6.61
2017-02-20T00:07:33.927Z,6.71
2017-02-20T00:08:33.916Z,6.69
2017-02-20T00:09:33.863Z,6.68
2017-02-20T00:10:33.869Z,6.68
2017-02-20T00:11:33.804Z,6.65
2017-02-20T00:12:33.826Z,6.71
2017-02-20T00:13:33.788Z,6.68
2017-02-20T00:14:33.746Z,6.69
2017-02-20T00:15:33.712Z,6.68
2017-02-20T00:16:33.310Z,6.71
2017-02-20T00:17:33.670Z,6.71
2017-02-20T00:18:33.273Z,6.68
2017-02-20T00:19:33.625Z,6.69
2017-02-20T00:20:33.236Z,6.73
2017-02-20T00:21:33.575Z,6.68
2017-02-20T00:22:33.563Z,6.68
2017-02-20T00:23:33.445Z,6.64
2017-02-20T00:24:33.120Z,6.63
2017-02-20T00:25:33.477Z,6.65
2017-02-20T00:26:33.457Z,6.69
2017-02-20T00:27:33.423Z,6.64
2017-02-20T00:28:33.415Z,6.61
2017-02-20T00:29:32.994Z,6.68
2017-02-20T00:30:33.581Z,6.69
2017-02-20T00:31:32.958Z,6.73
2017-02-20T00:32:33.304Z,6.69
2017-02-20T00:33:33.295Z,6.71
2017-02-20T00:34:33.279Z,6.65
2017-02-20T00:35:33.236Z,6.71
2017-02-20T00:36:33.224Z,6.71
2017-02-20T00:37:33.251Z,6.68
2017-02-20T00:38:32.777Z,6.65
2017-02-20T00:39:32.759Z,6.64
2017-02-20T00:40:33.135Z,6.69
2017-02-20T00:41:33.089Z,6.68
2017-02-20T00:42:32.681Z,6.71
2017-02-20T00:43:33.041Z,6.72
2017-02-20T00:44:32.640Z,6.68
2017-02-20T00:45:32.990Z,6.68
2017-02-20T00:46:32.581Z,6.68
2017-02-20T00:47:32.178Z,6.65
2017-02-20T00:48:32.958Z,6.64
2017-02-20T00:49:32.913Z,6.64
2017-02-20T00:50:32.883Z,6.68
2017-02-20T00:51:32.839Z,6.69
2017-02-20T00:52:32.448Z,6.68
2017-02-20T00:53:32.817Z,6.68
2017-02-20T00:54:32.788Z,6.69
2017-02-20T00:55:32.772Z,6.69
2017-02-20T00:56:31.970Z,6.73
2017-02-20T00:57:32.718Z,6.64
2017-02-20T00:58:32.676Z,6.75
2017-02-20T00:59:32.651Z,6.68
2017-02-20T01:00:32.624Z,6.71
2017-02-20T01:01:32.627Z,6.76
2017-02-20T01:02:32.591Z,6.75
2017-02-20T01:03:32.566Z,6.72
2017-02-20T01:04:32.533Z,6.76
2017-02-20T01:05:32.126Z,6.81
2017-02-20T01:06:33.121Z,6.76
2017-02-20T01:07:32.464Z,6.78
2017-02-20T01:08:32.440Z,6.83
2017-02-20T01:09:32.033Z,6.82
2017-02-20T01:10:32.014Z,6.96
2017-02-20T01:11:32.369Z,7.18
2017-02-20T01:12:31.966Z,7.27
2017-02-20T01:13:31.943Z,7.47
2017-02-20T01:14:32.297Z,7.41
2017-02-20T01:15:31.906Z,7.33
2017-02-20T01:16:31.860Z,7.32
2017-02-20T01:17:32.231Z,7.33
2017-02-20T01:18:32.210Z,7.33
2017-02-20T01:19:32.183Z,7.26
2017-02-20T01:20:32.177Z,7.21
2017-02-20T01:21:31.754Z,7.14
2017-02-20T01:22:31.735Z,7.11
2017-02-20T01:23:32.335Z,7.11
2017-02-20T01:24:32.098Z,7.27
2017-02-20T01:25:32.051Z,7.32
2017-02-20T01:26:32.020Z,7.27
2017-02-20T01:27:31.631Z,7.29
2017-02-20T01:28:31.962Z,7.27
2017-02-20T01:29:31.189Z,7.15
2017-02-20T01:30:31.927Z,7.14
2017-02-20T01:31:31.534Z,7.21
2017-02-20T01:32:31.892Z,7.07
2017-02-20T01:33:31.862Z,7.08
2017-02-20T01:34:31.818Z,7.29
2017-02-20T01:35:31.807Z,7.32
2017-02-20T01:36:31.786Z,7.34
2017-02-20T01:37:31.766Z,7.41
2017-02-20T01:38:31.334Z,7.37
2017-02-20T01:39:31.701Z,7.33
2017-02-20T01:40:31.677Z,7.37
2017-02-20T01:41:31.679Z,7.33
2017-02-20T01:42:31.644Z,7.32
2017-02-20T01:43:31.234Z,7.3
2017-02-20T01:44:31.576Z,7.15
2017-02-20T01:45:31.174Z,7.18
2017-02-20T01:46:31.575Z,7.12
2017-02-20T01:47:31.125Z,7.08
2017-02-20T01:48:31.489Z,7.08
2017-02-20T01:49:31.472Z,7.11
2017-02-20T01:50:31.063Z,7.05
2017-02-20T01:51:31.042Z,6.97
2017-02-20T01:52:31.397Z,6.94
2017-02-20T01:53:30.982Z,6.89
2017-02-20T01:54:31.350Z,6.86
2017-02-20T01:55:31.318Z,6.91
2017-02-20T01:56:30.917Z,6.91
2017-02-20T01:57:31.281Z,6.94
2017-02-20T01:58:30.869Z,6.87
2017-02-20T01:59:31.230Z,6.89
2017-02-20T02:00:31.198Z,6.91
2017-02-20T02:01:30.791Z,6.82
2017-02-20T02:02:30.790Z,6.82
2017-02-20T02:03:30.763Z,6.86
2017-02-20T02:04:31.123Z,6.75
2017-02-20T02:05:31.084Z,6.86
2017-02-20T02:06:31.060Z,6.9
2017-02-20T02:07:30.654Z,6.73
2017-02-20T02:08:31.036Z,6.83
2017-02-20T02:09:30.976Z,6.71
2017-02-20T02:10:30.964Z,6.76
2017-02-20T02:11:30.606Z,6.73
2017-02-20T02:12:30.912Z,6.76
2017-02-20T02:13:30.939Z,6.75
2017-02-20T02:14:30.478Z,6.78
2017-02-20T02:15:30.857Z,6.79
2017-02-20T02:16:30.831Z,6.75
2017-02-20T02:17:30.801Z,6.75
2017-02-20T02:18:30.777Z,6.78
2017-02-20T02:19:30.757Z,6.82
2017-02-20T02:20:30.015Z,6.81
2017-02-20T02:21:30.698Z,6.73
2017-02-20T02:22:29.917Z,6.89
2017-02-20T02:23:29.884Z,6.76
2017-02-20T02:24:30.623Z,6.76
2017-02-20T02:25:30.599Z,6.75
2017-02-20T02:26:30.189Z,6.87
2017-02-20T02:27:30.560Z,6.89
2017-02-20T02:28:30.143Z,6.87
2017-02-20T02:29:30.516Z,6.72
2017-02-20T02:30:30.480Z,6.86
2017-02-20T02:31:30.459Z,6.89
2017-02-20T02:32:30.062Z,6.83
2017-02-20T02:33:30.418Z,6.89
2017-02-20T02:34:30.437Z,6.78
2017-02-20T02:35:30.372Z,6.89
2017-02-20T02:36:29.954Z,6.86
2017-02-20T02:37:30.364Z,6.87
2017-02-20T02:38:29.940Z,6.9
2017-02-20T02:39:30.276Z,6.87
2017-02-20T02:40:30.250Z,6.93
2017-02-20T02:41:30.237Z,6.86
2017-02-20T02:42:30.194Z,6.91
2017-02-20T02:43:30.179Z,6.94
2017-02-20T02:44:30.159Z,6.94
2017-02-20T02:45:30.115Z,7.04
2017-02-20T02:46:29.715Z,6.97
2017-02-20T02:47:29.317Z,6.91
2017-02-20T02:48:30.054Z,6.9
2017-02-20T02:49:30.038Z,6.94
2017-02-20T02:50:30.008Z,6.93
2017-02-20T02:51:29.989Z,6.94
2017-02-20T02:52:29.579Z,6.93
2017-02-20T02:53:29.926Z,7
2017-02-20T02:54:29.730Z,7
2017-02-20T02:55:29.884Z,6.97
2017-02-20T02:56:29.872Z,7
2017-02-20T02:57:29.835Z,7.04
2017-02-20T02:58:29.818Z,6.99
2017-02-20T02:59:29.836Z,6.97
2017-02-20T03:00:29.789Z,7.05
2017-02-20T03:01:29.739Z,7.01
2017-02-20T03:02:30.066Z,7
2017-02-20T03:03:29.298Z,7
2017-02-20T03:04:29.729Z,7.07
2017-02-20T03:05:29.270Z,7.09
2017-02-20T03:06:29.671Z,7.07
2017-02-20T03:07:29.598Z,7.08
2017-02-20T03:08:29.574Z,7.05
2017-02-20T03:09:29.561Z,7.09
2017-02-20T03:10:29.147Z,7.07
2017-02-20T03:11:29.128Z,7.11
2017-02-20T03:12:29.479Z,7.11
2017-02-20T03:13:29.455Z,7.09
2017-02-20T03:14:29.051Z,7.09
2017-02-20T03:15:29.405Z,7.07
2017-02-20T03:16:29.438Z,7.01
2017-02-20T03:17:29.377Z,7.14
2017-02-20T03:18:29.341Z,7.18
2017-02-20T03:19:28.933Z,7.07
2017-02-20T03:20:29.331Z,7.08
2017-02-20T03:21:29.310Z,7.15
2017-02-20T03:22:29.243Z,7.14
2017-02-20T03:23:28.832Z,7.21
2017-02-20T03:24:29.201Z,7.08
2017-02-20T03:25:29.176Z,7.11
2017-02-20T03:26:29.150Z,7.12
2017-02-20T03:27:28.739Z,7.19
2017-02-20T03:28:28.708Z,7.16
2017-02-20T03:29:28.689Z,7.16
2017-02-20T03:30:29.042Z,7.11
2017-02-20T03:31:29.016Z,7.11
2017-02-20T03:32:28.611Z,7.16
2017-02-20T03:33:28.596Z,7.21
2017-02-20T03:34:28.573Z,7.18
2017-02-20T03:35:28.969Z,7.16
2017-02-20T03:36:28.910Z,7.15
2017-02-20T03:37:28.894Z,7.11
2017-02-20T03:38:28.859Z,7.14
2017-02-20T03:39:28.827Z,7.16
2017-02-20T03:40:28.814Z,7.12
2017-02-20T03:41:28.792Z,7.14
2017-02-20T03:42:28.755Z,7.19
2017-02-20T03:43:28.726Z,7.18
2017-02-20T03:44:28.328Z,7.23
2017-02-20T03:45:28.703Z,7.23
2017-02-20T03:46:28.693Z,7.19
2017-02-20T03:47:28.633Z,7.27
2017-02-20T03:48:28.620Z,7.27
2017-02-20T03:49:28.590Z,7.23
2017-02-20T03:50:28.573Z,7.23
2017-02-20T03:51:28.548Z,7.24
2017-02-20T03:52:28.521Z,7.33
2017-02-20T03:53:28.165Z,7.23
2017-02-20T03:54:28.520Z,7.34
2017-02-20T03:55:28.699Z,7.3
2017-02-20T03:56:28.432Z,7.26
2017-02-20T03:57:28.402Z,7.34
2017-02-20T03:58:28.374Z,7.27
2017-02-20T03:59:28.367Z,7.33
2017-02-20T04:00:28.389Z,7.29
2017-02-20T04:01:28.346Z,7.33
2017-02-20T04:02:28.309Z,7.27
2017-02-20T04:03:27.925Z,7.33
2017-02-20T04:04:28.231Z,7.39
2017-02-20T04:05:28.217Z,7.34
2017-02-20T04:06:28.188Z,7.36
2017-02-20T04:07:27.782Z,7.3
2017-02-20T04:08:28.131Z,7.39
2017-02-20T04:09:28.112Z,7.3
2017-02-20T04:10:28.102Z,7.34
2017-02-20T04:11:28.298Z,7.33
2017-02-20T04:12:28.041Z,7.32
2017-02-20T04:13:28.031Z,7.42
2017-02-20T04:14:28.063Z,7.36
2017-02-20T04:15:27.582Z,7.39
2017-02-20T04:16:27.948Z,7.37
2017-02-20T04:17:27.539Z,7.36
2017-02-20T04:18:27.513Z,7.33
2017-02-20T04:19:27.875Z,7.44
2017-02-20T04:20:27.472Z,7.32
2017-02-20T04:21:27.822Z,7.39
2017-02-20T04:22:27.825Z,7.36
2017-02-20T04:23:27.434Z,7.36
2017-02-20T04:24:27.762Z,7.42
2017-02-20T04:25:27.345Z,7.41
2017-02-20T04:26:27.720Z,7.37
2017-02-20T04:27:27.855Z,7.42
2017-02-20T04:28:27.730Z,7.42
2017-02-20T04:29:27.638Z,7.39
2017-02-20T04:30:27.527Z,7.39
2017-02-20T04:31:27.606Z,7.41
2017-02-20T04:32:27.605Z,7.44
2017-02-20T04:33:27.554Z,7.36
2017-02-20T04:34:27.134Z,7.47
2017-02-20T04:35:27.500Z,7.39
2017-02-20T04:36:27.494Z,7.45
2017-02-20T04:37:27.455Z,7.47
2017-02-20T04:38:27.480Z,7.36
2017-02-20T04:39:27.400Z,7.47
2017-02-20T04:40:26.997Z,7.42
2017-02-20T04:41:27.355Z,7.42
2017-02-20T04:42:27.346Z,7.39
2017-02-20T04:43:26.925Z,7.5
2017-02-20T04:44:27.299Z,7.42
2017-02-20T04:45:27.256Z,7.39
2017-02-20T04:46:27.240Z,7.37
2017-02-20T04:47:27.217Z,7.45
2017-02-20T04:48:26.815Z,7.39
2017-02-20T04:49:27.204Z,7.45
2017-02-20T04:50:27.144Z,7.42
2017-02-20T04:51:27.120Z,7.42
2017-02-20T04:52:27.091Z,7.42
2017-02-20T04:53:26.748Z,7.48
2017-02-20T04:54:27.055Z,7.48
2017-02-20T04:55:27.025Z,7.5
2017-02-20T04:56:26.620Z,7.52
2017-02-20T04:57:26.589Z,7.5
2017-02-20T04:58:26.947Z,7.44
2017-02-20T04:59:26.542Z,7.42
2017-02-20T05:00:26.144Z,7.47
2017-02-20T05:01:26.940Z,7.41
2017-02-20T05:02:26.891Z,7.52
2017-02-20T05:03:26.843Z,7.48
2017-02-20T05:04:26.821Z,7.44
2017-02-20T05:05:26.397Z,7.48
2017-02-20T05:06:26.767Z,7.48
2017-02-20T05:07:26.753Z,7.42
2017-02-20T05:08:26.719Z,7.51
2017-02-20T05:09:26.693Z,7.45
2017-02-20T05:10:26.667Z,7.48
2017-02-20T05:11:26.652Z,7.54
2017-02-20T05:12:26.617Z,7.52
2017-02-20T05:13:26.627Z,7.5
2017-02-20T05:14:26.591Z,7.42
2017-02-20T05:15:25.785Z,7.48
2017-02-20T05:16:26.519Z,7.5
2017-02-20T05:17:26.515Z,7.5
2017-02-20T05:18:26.484Z,7.51
2017-02-20T05:19:26.467Z,7.57
2017-02-20T05:20:26.057Z,7.58
2017-02-20T05:21:26.024Z,7.55
2017-02-20T05:22:26.013Z,7.62
2017-02-20T05:23:25.976Z,7.58
2017-02-20T05:24:25.974Z,7.52
2017-02-20T05:25:25.937Z,7.58
2017-02-20T05:26:25.914Z,7.57
2017-02-20T05:27:26.263Z,7.66
2017-02-20T05:28:26.246Z,7.66
2017-02-20T05:29:26.220Z,7.67
2017-02-20T05:30:26.188Z,7.57
2017-02-20T05:31:26.171Z,7.62
2017-02-20T05:32:25.816Z,7.7
2017-02-20T05:33:26.124Z,7.71
2017-02-20T05:34:26.096Z,7.69
2017-02-20T05:35:26.100Z,7.63
2017-02-20T05:36:25.688Z,7.73
2017-02-20T05:37:26.044Z,7.66
2017-02-20T05:38:26.009Z,7.67
2017-02-20T05:39:26.066Z,7.54
2017-02-20T05:40:25.583Z,7.71
2017-02-20T05:41:25.968Z,7.71
2017-02-20T05:42:25.907Z,7.67
2017-02-20T05:43:25.505Z,7.71
2017-02-20T05:44:25.505Z,7.6
2017-02-20T05:45:25.465Z,7.69
2017-02-20T05:46:25.046Z,7.62
2017-02-20T05:47:25.801Z,7.74
2017-02-20T05:48:25.789Z,7.67
2017-02-20T05:49:25.742Z,7.67
2017-02-20T05:50:25.756Z,7.62
2017-02-20T05:51:25.322Z,7.66
2017-02-20T05:52:25.301Z,7.62
2017-02-20T05:53:25.662Z,7.6
2017-02-20T05:54:25.634Z,7.67
2017-02-20T05:55:25.636Z,7.63
2017-02-20T05:56:25.205Z,7.69
2017-02-20T05:57:25.563Z,7.62
2017-02-20T05:58:25.537Z,7.63
2017-02-20T05:59:25.524Z,7.69
2017-02-20T06:00:25.519Z,7.73
2017-02-20T06:01:25.080Z,7.71
2017-02-20T06:02:25.497Z,7.62
2017-02-20T06:03:25.033Z,7.71
2017-02-20T06:04:24.630Z,7.66
2017-02-20T06:05:25.373Z,7.67
2017-02-20T06:06:24.954Z,7.69
2017-02-20T06:07:25.332Z,7.54
2017-02-20T06:08:24.920Z,7.66
2017-02-20T06:09:25.280Z,7.63
2017-02-20T06:10:24.862Z,7.74
2017-02-20T06:11:24.466Z,7.69
2017-02-20T06:12:25.461Z,7.62
2017-02-20T06:13:25.231Z,7.6
2017-02-20T06:14:24.400Z,7.66
2017-02-20T06:15:24.754Z,7.71
2017-02-20T06:16:25.105Z,7.62
2017-02-20T06:17:25.082Z,7.62
2017-02-20T06:18:25.075Z,7.63
2017-02-20T06:19:25.035Z,7.62
2017-02-20T06:20:25.473Z,7.62
2017-02-20T06:21:24.608Z,7.62
2017-02-20T06:22:24.970Z,7.69
2017-02-20T06:23:24.951Z,7.67
2017-02-20T06:24:24.917Z,7.66
2017-02-20T06:25:24.906Z,7.6
2017-02-20T06:26:24.493Z,7.63
2017-02-20T06:27:24.471Z,7.62
2017-02-20T06:28:24.825Z,7.69
2017-02-20T06:29:24.866Z,7.74
2017-02-20T06:30:25.581Z,7.62
2017-02-20T06:31:25.103Z,7.6
2017-02-20T06:32:24.720Z,7.57
2017-02-20T06:33:24.755Z,7.76
2017-02-20T06:34:24.917Z,7.58
2017-02-20T06:35:24.704Z,7.66
2017-02-20T06:36:24.630Z,7.73
2017-02-20T06:37:24.621Z,7.66
2017-02-20T06:38:24.198Z,7.58
2017-02-20T06:39:24.195Z,7.58
2017-02-20T06:40:24.158Z,7.67
2017-02-20T06:41:24.523Z,7.66
2017-02-20T06:42:24.208Z,7.66
2017-02-20T06:43:24.471Z,7.7
2017-02-20T06:44:24.563Z,7.73
2017-02-20T06:45:24.031Z,7.74
2017-02-20T06:46:24.395Z,7.7
2017-02-20T06:47:24.387Z,7.79
2017-02-20T06:48:24.354Z,7.77
2017-02-20T06:49:24.317Z,7.82
2017-02-20T06:50:23.546Z,7.76
2017-02-20T06:51:24.283Z,7.77
2017-02-20T06:52:24.255Z,7.73
2017-02-20T06:53:23.854Z,7.71
2017-02-20T06:54:23.825Z,7.77
2017-02-20T06:55:24.181Z,7.77
2017-02-20T06:56:23.774Z,7.73
2017-02-20T06:57:23.765Z,7.76
2017-02-20T06:58:24.121Z,7.74
2017-02-20T06:59:24.103Z,7.73
2017-02-20T07:00:24.080Z,7.73
2017-02-20T07:01:23.656Z,7.85
2017-02-20T07:02:24.023Z,7.73
2017-02-20T07:03:23.277Z,7.76
2017-02-20T07:04:23.983Z,7.7
2017-02-20T07:05:23.961Z,7.7
2017-02-20T07:06:23.942Z,7.7
2017-02-20T07:07:23.516Z,7.77
2017-02-20T07:08:23.506Z,7.79
2017-02-20T07:09:23.859Z,7.82
2017-02-20T07:10:23.831Z,7.79
2017-02-20T07:11:23.804Z,7.82
2017-02-20T07:12:23.417Z,7.77
2017-02-20T07:13:23.373Z,7.77
2017-02-20T07:14:23.360Z,7.84
2017-02-20T07:15:23.711Z,7.82
2017-02-20T07:16:23.688Z,7.86
2017-02-20T07:17:23.667Z,7.89
2017-02-20T07:18:23.257Z,7.99
2017-02-20T07:19:23.240Z,7.92
2017-02-20T07:20:23.595Z,7.95
2017-02-20T07:21:23.186Z,7.92
2017-02-20T07:22:23.158Z,7.88
2017-02-20T07:23:23.535Z,7.94
2017-02-20T07:24:23.112Z,7.95
2017-02-20T07:25:23.481Z,8
2017-02-20T07:26:23.445Z,7.95
2017-02-20T07:27:23.074Z,7.94
2017-02-20T07:28:23.412Z,7.89
2017-02-20T07:29:23.388Z,7.94
2017-02-20T07:30:23.360Z,8
2017-02-20T07:31:23.338Z,7.92
2017-02-20T07:32:23.311Z,7.99
2017-02-20T07:33:23.287Z,8
2017-02-20T07:34:23.300Z,8.03
2017-02-20T07:35:22.872Z,7.99
2017-02-20T07:36:23.217Z,8.03
2017-02-20T07:37:23.191Z,7.96
2017-02-20T07:38:22.782Z,7.94
2017-02-20T07:39:23.146Z,8
2017-02-20T07:40:23.124Z,7.99
2017-02-20T07:41:23.150Z,8.06
2017-02-20T07:42:22.689Z,7.95
2017-02-20T07:43:23.043Z,8.02
2017-02-20T07:44:23.045Z,7.95
2017-02-20T07:45:22.619Z,8
2017-02-20T07:46:22.649Z,8.06
2017-02-20T07:47:22.964Z,8
2017-02-20T07:48:22.929Z,8
2017-02-20T07:49:22.593Z,8.06
2017-02-20T07:50:22.912Z,8
2017-02-20T07:51:22.911Z,8
2017-02-20T07:52:22.836Z,7.99
2017-02-20T07:53:22.839Z,7.99
2017-02-20T07:54:22.405Z,8.02
2017-02-20T07:55:22.768Z,7.96
2017-02-20T07:56:22.370Z,8.02
2017-02-20T07:57:22.735Z,8.03
2017-02-20T07:58:22.700Z,8.04
2017-02-20T07:59:22.681Z,8.06
2017-02-20T08:00:22.670Z,8
2017-02-20T08:01:22.680Z,8.03
2017-02-20T08:02:22.607Z,7.99
2017-02-20T08:03:22.636Z,7.94
2017-02-20T08:04:22.565Z,8.03
2017-02-20T08:05:22.148Z,7.99
2017-02-20T08:06:22.130Z,8
2017-02-20T08:07:22.487Z,8.03
2017-02-20T08:08:22.086Z,8.03
2017-02-20T08:09:22.445Z,8.04
2017-02-20T08:10:22.426Z,8.03
2017-02-20T08:11:22.390Z,8.03
2017-02-20T08:12:22.367Z,8.02
2017-02-20T08:13:21.587Z,8.04
2017-02-20T08:14:22.329Z,8.03
2017-02-20T08:15:21.916Z,8.06
2017-02-20T08:16:21.894Z,8.06
2017-02-20T08:17:22.258Z,8.02
2017-02-20T08:18:22.234Z,8.04
2017-02-20T08:19:22.208Z,8.13
2017-02-20T08:20:22.173Z,8.09
2017-02-20T08:21:21.439Z,8
2017-02-20T08:22:21.755Z,8.1
2017-02-20T08:23:21.735Z,8.09
2017-02-20T08:24:22.083Z,8.12
2017-02-20T08:25:21.689Z,8.12
2017-02-20T08:26:23.602Z,8.12
2017-02-20T08:27:22.241Z,8.17
2017-02-20T08:28:22.015Z,8.07
2017-02-20T08:29:22.016Z,8.07
2017-02-20T08:30:21.943Z,8.13
2017-02-20T08:31:21.967Z,8.12
2017-02-20T08:32:21.916Z,8.1
2017-02-20T08:33:21.488Z,8.2
2017-02-20T08:34:21.473Z,8.21
2017-02-20T08:35:21.830Z,8.18
2017-02-20T08:36:21.798Z,8.18
2017-02-20T08:37:22.031Z,8.21
2017-02-20T08:38:21.795Z,8.14
2017-02-20T08:39:21.741Z,8.25
2017-02-20T08:40:21.712Z,8.24
2017-02-20T08:41:21.688Z,8.2
2017-02-20T08:42:21.682Z,8.2
2017-02-20T08:43:21.651Z,8.17
2017-02-20T08:44:21.614Z,8.2
2017-02-20T08:45:21.210Z,8.18
2017-02-20T08:46:21.591Z,8.2
2017-02-20T08:47:21.544Z,8.21
2017-02-20T08:48:21.557Z,8.24
2017-02-20T08:49:21.499Z,8.22
2017-02-20T08:50:21.474Z,8.27
2017-02-20T08:51:21.447Z,8.24
2017-02-20T08:52:21.441Z,8.22
2017-02-20T08:53:21.417Z,8.27
2017-02-20T08:54:20.989Z,8.29
2017-02-20T08:55:20.999Z,8.25
2017-02-20T08:56:21.351Z,8.32
2017-02-20T08:57:20.948Z,8.37
2017-02-20T08:58:20.926Z,8.28
2017-02-20T08:59:21.271Z,8.31
2017-02-20T09:00:21.239Z,8.32
2017-02-20T09:01:21.212Z,8.32
2017-02-20T09:02:20.811Z,8.32
2017-02-20T09:03:21.177Z,8.36
2017-02-20T09:04:21.150Z,8.39
2017-02-20T09:05:21.147Z,8.39
2017-02-20T09:06:21.133Z,8.45
2017-02-20T09:07:21.080Z,8.46
2017-02-20T09:08:20.696Z,8.45
2017-02-20T09:09:21.033Z,8.46
2017-02-20T09:10:21.025Z,8.47
2017-02-20T09:11:21.350Z,8.55
2017-02-20T09:12:20.966Z,8.5
2017-02-20T09:13:20.951Z,8.57
2017-02-20T09:14:20.937Z,8.52
2017-02-20T09:15:21.299Z,8.54
2017-02-20T09:16:20.872Z,8.6
2017-02-20T09:17:20.855Z,8.49
2017-02-20T09:18:20.836Z,8.54
2017-02-20T09:19:21.051Z,8.52
2017-02-20T09:20:20.887Z,8.52
2017-02-20T09:21:20.373Z,8.54
2017-02-20T09:22:20.736Z,8.58
2017-02-20T09:23:20.714Z,8.55
2017-02-20T09:24:20.697Z,8.61
2017-02-20T09:25:20.662Z,8.55
2017-02-20T09:26:20.642Z,8.46
2017-02-20T09:27:20.612Z,8.5
2017-02-20T09:28:20.215Z,8.54
2017-02-20T09:29:20.189Z,8.7
2017-02-20T09:30:20.598Z,8.7
2017-02-20T09:31:20.589Z,8.6
2017-02-20T09:32:20.506Z,8.6
2017-02-20T09:33:20.485Z,8.63
2017-02-20T09:34:20.068Z,8.67
2017-02-20T09:35:20.428Z,8.65
2017-02-20T09:36:20.459Z,8.67
2017-02-20T09:37:20.386Z,8.68
2017-02-20T09:38:19.994Z,8.67
2017-02-20T09:39:20.349Z,8.7
2017-02-20T09:40:20.328Z,8.7
2017-02-20T09:41:19.911Z,8.73
2017-02-20T09:42:20.278Z,8.71
2017-02-20T09:43:19.874Z,8.8
2017-02-20T09:44:20.221Z,8.86
2017-02-20T09:45:20.205Z,8.75
2017-02-20T09:46:20.237Z,8.86
2017-02-20T09:47:20.159Z,8.68
2017-02-20T09:48:20.149Z,8.82
2017-02-20T09:49:20.137Z,8.71
2017-02-20T09:50:20.102Z,8.73
2017-02-20T09:51:20.060Z,8.68
2017-02-20T09:52:19.648Z,8.68
2017-02-20T09:53:20.021Z,8.67
2017-02-20T09:54:19.605Z,8.83
2017-02-20T09:55:19.989Z,8.75
2017-02-20T09:56:19.612Z,8.8
2017-02-20T09:57:19.541Z,8.88
2017-02-20T09:58:19.512Z,8.75
2017-02-20T09:59:19.869Z,8.8
2017-02-20T10:00:19.858Z,8.82
2017-02-20T10:01:19.848Z,8.78
2017-02-20T10:02:19.806Z,8.93
2017-02-20T10:03:19.828Z,8.79
2017-02-20T10:04:19.763Z,8.78
2017-02-20T10:05:19.737Z,8.88
2017-02-20T10:06:19.711Z,8.85
2017-02-20T10:07:19.305Z,8.82
2017-02-20T10:08:19.714Z,8.8
2017-02-20T10:09:19.645Z,8.79
2017-02-20T10:10:19.239Z,8.88
2017-02-20T10:11:19.601Z,8.83
2017-02-20T10:12:19.199Z,8.8
2017-02-20T10:13:19.551Z,8.82
2017-02-20T10:14:19.750Z,8.82
2017-02-20T10:15:19.127Z,8.91
2017-02-20T10:16:19.489Z,8.86
2017-02-20T10:17:19.080Z,8.94
2017-02-20T10:18:19.119Z,8.85
2017-02-20T10:19:19.474Z,8.8
2017-02-20T10:20:19.399Z,8.91
2017-02-20T10:21:19.368Z,8.86
2017-02-20T10:22:19.348Z,8.91
2017-02-20T10:23:19.339Z,8.93
2017-02-20T10:24:19.298Z,8.94
2017-02-20T10:25:19.272Z,8.91
2017-02-20T10:26:19.251Z,8.94
2017-02-20T10:27:19.226Z,8.93
2017-02-20T10:28:18.827Z,8.94
2017-02-20T10:29:19.202Z,9.01
2017-02-20T10:30:19.158Z,8.98
2017-02-20T10:31:19.140Z,9.03
2017-02-20T10:32:18.743Z,8.96
2017-02-20T10:33:18.709Z,9.01
2017-02-20T10:34:18.686Z,8.94
2017-02-20T10:35:19.066Z,8.93
2017-02-20T10:36:19.277Z,9.01
2017-02-20T10:37:19.018Z,9.03
2017-02-20T10:38:18.595Z,8.94
2017-02-20T10:39:18.569Z,8.89
2017-02-20T10:40:18.936Z,9
2017-02-20T10:41:18.916Z,8.96
2017-02-20T10:42:18.886Z,8.97
2017-02-20T10:43:18.488Z,8.94
2017-02-20T10:44:18.865Z,8.96
2017-02-20T10:45:18.842Z,8.98
2017-02-20T10:46:18.419Z,8.98
2017-02-20T10:47:18.784Z,9.03
2017-02-20T10:48:18.750Z,9.08
2017-02-20T10:49:18.721Z,9.03
2017-02-20T10:50:18.706Z,9.13
2017-02-20T10:51:18.544Z,9.12
2017-02-20T10:52:18.656Z,9.13
2017-02-20T10:53:18.654Z,9.1
2017-02-20T10:54:18.615Z,9.04
2017-02-20T10:55:18.586Z,9.08
2017-02-20T10:56:18.237Z,9.04
2017-02-20T10:57:18.554Z,9.03
2017-02-20T10:58:18.518Z,9
2017-02-20T10:59:18.509Z,9.1
2017-02-20T11:00:18.473Z,9
2017-02-20T11:01:18.463Z,9.03
2017-02-20T11:02:18.427Z,8.94
2017-02-20T11:03:18.086Z,9.04
2017-02-20T11:04:18.013Z,9.08
2017-02-20T11:05:17.982Z,9.08
2017-02-20T11:06:18.352Z,9.04
2017-02-20T11:07:18.311Z,9.12
2017-02-20T11:08:18.292Z,9.17
2017-02-20T11:09:18.301Z,9.15
2017-02-20T11:10:17.862Z,9.12
2017-02-20T11:11:18.237Z,9.13
2017-02-20T11:12:18.197Z,9.1
2017-02-20T11:13:17.790Z,9.1
2017-02-20T11:14:18.154Z,9.1
2017-02-20T11:15:18.127Z,9.2
2017-02-20T11:16:18.104Z,9.06
2017-02-20T11:17:18.109Z,9.19
2017-02-20T11:18:18.066Z,9.19
2017-02-20T11:19:18.043Z,9.17
2017-02-20T11:20:17.675Z,9.26
2017-02-20T11:21:17.985Z,9.17
2017-02-20T11:22:17.971Z,9.15
2017-02-20T11:23:18.150Z,9.19
2017-02-20T11:24:17.929Z,9.16
2017-02-20T11:25:17.895Z,9.19
2017-02-20T11:26:17.878Z,9.2
2017-02-20T11:27:17.856Z,9.23
2017-02-20T11:28:17.833Z,9.2
2017-02-20T11:29:17.835Z,9.2
2017-02-20T11:30:17.793Z,9.22
2017-02-20T11:31:17.775Z,9.26
2017-02-20T11:32:17.361Z,9.24
2017-02-20T11:33:17.716Z,9.22
2017-02-20T11:34:17.700Z,9.23
2017-02-20T11:35:17.701Z,9.22
2017-02-20T11:36:17.261Z,9.2
2017-02-20T11:37:17.645Z,9.26
2017-02-20T11:38:17.216Z,9.24
2017-02-20T11:39:17.616Z,9.26
2017-02-20T11:40:17.559Z,9.23
2017-02-20T11:41:17.150Z,9.23
2017-02-20T11:42:17.133Z,9.27
2017-02-20T11:43:17.489Z,9.22
2017-02-20T11:44:17.473Z,9.24
2017-02-20T11:45:17.443Z,9.24
2017-02-20T11:46:17.420Z,9.26
2017-02-20T11:47:17.411Z,9.26
2017-02-20T11:48:16.991Z,9.32
2017-02-20T11:49:16.969Z,9.3
2017-02-20T11:50:17.329Z,9.4
2017-02-20T11:51:16.941Z,9.37
2017-02-20T11:52:17.292Z,9.37
2017-02-20T11:53:17.257Z,9.37
2017-02-20T11:54:17.238Z,9.34
2017-02-20T11:55:17.234Z,9.31
2017-02-20T11:56:17.194Z,9.37
2017-02-20T11:57:17.175Z,9.42
2017-02-20T11:58:17.159Z,9.37
2017-02-20T11:59:17.122Z,9.34
2017-02-20T12:00:16.739Z,9.38
2017-02-20T12:01:17.108Z,9.45
2017-02-20T12:02:17.055Z,9.45
2017-02-20T12:03:17.028Z,9.44
2017-02-20T12:04:16.651Z,9.42
2017-02-20T12:05:16.625Z,9.42
2017-02-20T12:06:16.984Z,9.42
2017-02-20T12:07:16.565Z,9.37
2017-02-20T12:08:16.929Z,9.44
2017-02-20T12:09:16.132Z,9.49
2017-02-20T12:10:16.870Z,9.41
2017-02-20T12:11:16.094Z,9.45
2017-02-20T12:12:16.839Z,9.49
2017-02-20T12:13:16.825Z,9.42
2017-02-20T12:14:16.410Z,9.5
2017-02-20T12:15:16.380Z,9.52
2017-02-20T12:16:16.744Z,9.53
2017-02-20T12:17:16.333Z,9.5
2017-02-20T12:18:15.931Z,9.55
2017-02-20T12:19:16.680Z,9.52
2017-02-20T12:20:16.265Z,9.5
2017-02-20T12:21:16.688Z,9.56
2017-02-20T12:22:16.619Z,9.52
2017-02-20T12:23:16.634Z,9.56
2017-02-20T12:24:16.571Z,9.55
2017-02-20T12:25:16.541Z,9.55
2017-02-20T12:26:16.820Z,9.62
2017-02-20T12:27:16.553Z,9.6
2017-02-20T12:28:16.098Z,9.58
2017-02-20T12:29:16.450Z,9.5
2017-02-20T12:30:16.056Z,9.63
2017-02-20T12:31:16.417Z,9.59
2017-02-20T12:32:16.394Z,9.6
2017-02-20T12:33:16.455Z,9.6
2017-02-20T12:34:15.950Z,9.58
2017-02-20T12:35:15.939Z,9.59
2017-02-20T12:36:16.290Z,9.58
2017-02-20T12:37:16.279Z,9.55
2017-02-20T12:38:16.265Z,9.53
2017-02-20T12:39:15.857Z,9.52
2017-02-20T12:40:16.193Z,9.52
2017-02-20T12:41:16.187Z,9.53
2017-02-20T12:42:15.794Z,9.53
2017-02-20T12:43:16.259Z,9.49
2017-02-20T12:44:15.732Z,9.53
2017-02-20T12:45:15.720Z,9.58
2017-02-20T12:46:16.126Z,9.56
2017-02-20T12:47:15.656Z,9.5
2017-02-20T12:48:15.636Z,9.49
2017-02-20T12:49:16.259Z,9.53
2017-02-20T12:50:15.985Z,9.5
2017-02-20T12:51:16.022Z,9.53
2017-02-20T12:52:15.928Z,9.53
2017-02-20T12:53:15.952Z,9.58
2017-02-20T12:54:15.942Z,9.52
2017-02-20T12:55:15.476Z,9.53
2017-02-20T12:56:15.511Z,9.58
2017-02-20T12:57:15.433Z,9.49
2017-02-20T12:58:15.793Z,9.6
2017-02-20T12:59:15.766Z,9.59
2017-02-20T13:00:15.754Z,9.58
2017-02-20T13:01:15.722Z,9.5
2017-02-20T13:02:15.722Z,9.55
2017-02-20T13:03:15.711Z,9.63
2017-02-20T13:04:15.671Z,9.68
2017-02-20T13:05:15.271Z,9.73
2017-02-20T13:06:15.632Z,9.7
2017-02-20T13:07:15.612Z,9.7
2017-02-20T13:08:15.185Z,9.67
2017-02-20T13:09:15.549Z,9.7
2017-02-20T13:10:15.534Z,9.67
2017-02-20T13:11:15.130Z,9.68
2017-02-20T13:12:15.472Z,9.7
2017-02-20T13:13:15.456Z,9.71
2017-02-20T13:14:15.441Z,9.65
2017-02-20T13:15:15.416Z,9.74
2017-02-20T13:16:15.434Z,9.63
2017-02-20T13:17:15.362Z,9.63
2017-02-20T13:18:15.393Z,9.68
2017-02-20T13:19:14.935Z,9.71
2017-02-20T13:20:15.325Z,9.68
2017-02-20T13:21:15.271Z,9.73
2017-02-20T13:22:15.310Z,9.65